createdAt,value
2016-07-09T14:43:38.040Z,18.6
2016-07-09T14:46:50.103Z,18.8
2016-07-09T14:49:54.909Z,18.9
2016-07-09T14:53:09.621Z,18.9
2016-07-09T14:56:24.043Z,19
2016-07-09T14:59:43.401Z,19.1
2016-07-09T15:02:47.610Z,19.1
2016-07-09T15:06:01.420Z,19
2016-07-09T15:09:15.624Z,19.1
2016-07-09T15:12:29.256Z,19.2
2016-07-09T15:15:47.508Z,19.3
2016-07-09T15:18:51.816Z,19.4
2016-07-09T15:22:05.428Z,19.3
2016-07-09T15:25:18.934Z,19.3
2016-07-09T15:28:33.523Z,19.3
2016-07-09T15:31:48.117Z,19.4
2016-07-09T15:35:02.769Z,19.4
2016-07-09T15:38:17.089Z,19.4
2016-07-09T15:41:28.829Z,19.4
2016-07-09T15:44:48.266Z,19.3
2016-07-09T15:47:52.997Z,19.3
2016-07-09T15:51:05.150Z,19.3
2016-07-09T15:54:21.810Z,19.3
2016-07-09T15:57:41.352Z,19.3
2016-07-09T16:00:46.058Z,19.3
2016-07-09T16:04:00.407Z,19.4
2016-07-09T16:07:14.415Z,19.5
2016-07-09T16:10:28.888Z,19.5
2016-07-09T16:13:48.210Z,19.4
2016-07-09T16:16:52.804Z,19.4
2016-07-09T16:20:06.821Z,19.3
2016-07-09T16:23:20.969Z,19.3
2016-07-09T16:26:35.465Z,19.4
2016-07-09T16:29:49.686Z,19.4
2016-07-09T16:33:03.856Z,19.3
2016-07-09T16:36:15.887Z,19.2
2016-07-09T16:39:30.236Z,19.2
2016-07-09T16:42:49.444Z,19.1
2016-07-09T16:45:53.818Z,19.1
2016-07-09T16:49:08.094Z,19.1
2016-07-09T16:52:22.044Z,19.1
2016-07-09T16:55:34.813Z,19.2
2016-07-09T16:58:48.876Z,19.2
2016-07-09T17:02:02.587Z,19.2
2016-07-09T17:05:16.936Z,19.2
2016-07-09T17:08:30.916Z,19.2
2016-07-09T17:11:49.362Z,19.2
2016-07-09T17:14:53.650Z,19.1
2016-07-09T17:18:07.014Z,19.1
2016-07-09T17:21:17.195Z,19
2016-07-09T17:24:30.527Z,19
2016-07-09T17:27:49.436Z,18.9
2016-07-09T17:30:53.156Z,18.9
2016-07-09T17:34:06.631Z,18.9
2016-07-09T17:37:20.260Z,18.9
2016-07-09T17:40:33.983Z,18.9
2016-07-09T17:43:47.312Z,18.8
2016-07-09T17:47:00.155Z,18.8
2016-07-09T17:50:11.838Z,18.8
2016-07-09T17:53:27.629Z,18.7
2016-07-09T17:56:46.252Z,18.7
2016-07-09T17:59:49.923Z,18.7
2016-07-09T18:03:02.032Z,18.7
2016-07-09T18:06:18.398Z,18.6
2016-07-09T18:09:32.841Z,18.6
2016-07-09T18:12:47.095Z,18.6
2016-07-09T18:16:01.181Z,18.5
2016-07-09T18:19:13.371Z,18.5
2016-07-09T18:22:29.953Z,18.4
2016-07-09T18:25:48.983Z,18.3
2016-07-09T18:28:53.035Z,18.3
2016-07-09T18:32:07.005Z,18.2
2016-07-09T18:35:20.961Z,18.2
2016-07-09T18:38:35.403Z,18.1
2016-07-09T18:41:49.134Z,18.1
2016-07-09T18:45:03.877Z,18
2016-07-09T18:48:18.642Z,18
2016-07-09T18:51:33.042Z,18
2016-07-09T18:54:45.540Z,17.9
2016-07-09T18:58:02.442Z,17.9
2016-07-09T19:01:17.152Z,17.9
2016-07-09T19:04:31.455Z,17.8
2016-07-09T19:07:46.061Z,17.8
2016-07-09T19:11:00.761Z,17.8
2016-07-09T19:14:15.540Z,17.7
2016-07-09T19:17:30.260Z,17.7
2016-07-09T19:20:49.884Z,17.7
2016-07-09T19:23:54.853Z,17.6
2016-07-09T19:27:09.544Z,17.6
2016-07-09T19:30:24.295Z,17.6
2016-07-09T19:33:43.630Z,17.6
2016-07-09T19:36:48.637Z,17.6
2016-07-09T19:40:03.215Z,17.5
2016-07-09T19:43:17.742Z,17.5
2016-07-09T19:46:32.359Z,17.5
2016-07-09T19:49:46.993Z,17.5
2016-07-09T19:53:01.568Z,17.4
2016-07-09T19:56:16.084Z,17.5
2016-07-09T19:59:30.681Z,17.5
2016-07-09T20:02:50.318Z,17.5
2016-07-09T20:05:55.329Z,17.5
2016-07-09T20:09:09.814Z,17.4
2016-07-09T20:12:24.243Z,17.4
2016-07-09T20:15:41.886Z,17.4
2016-07-09T20:18:46.859Z,17.4
2016-07-09T20:22:01.472Z,17.4
2016-07-09T20:25:16.121Z,17.3
2016-07-09T20:28:29.021Z,17.3
2016-07-09T20:31:48.666Z,17.3
2016-07-09T20:34:53.637Z,17.3
2016-07-09T20:38:08.241Z,17.3
2016-07-09T20:41:22.898Z,17.3
2016-07-09T20:44:35.305Z,17.2
2016-07-09T20:47:49.580Z,17.2
2016-07-09T20:51:04.142Z,17.1
2016-07-09T20:54:18.553Z,17.1
2016-07-09T20:57:33.377Z,17.1
2016-07-09T21:00:46.327Z,17
2016-07-09T21:04:01.009Z,17
2016-07-09T21:07:15.616Z,17
2016-07-09T21:10:30.154Z,16.9
2016-07-09T21:13:49.672Z,16.9
2016-07-09T21:16:54.484Z,16.9
2016-07-09T21:20:09.011Z,16.8
2016-07-09T21:23:23.767Z,16.8
2016-07-09T21:26:43.223Z,16.8
2016-07-09T21:29:48.026Z,16.8
2016-07-09T21:33:02.489Z,16.7
2016-07-09T21:36:17.009Z,16.7
2016-07-09T21:39:30.242Z,16.7
2016-07-09T21:42:49.674Z,16.6
2016-07-09T21:45:54.267Z,16.6
2016-07-09T21:49:08.609Z,16.6
2016-07-09T21:52:23.066Z,16.6
2016-07-09T21:55:42.508Z,16.5
2016-07-09T21:58:47.127Z,16.5
2016-07-09T22:02:01.691Z,16.5
2016-07-09T22:05:16.052Z,16.5
2016-07-09T22:08:30.416Z,16.5
2016-07-09T22:11:49.191Z,16.4
2016-07-09T22:14:54.018Z,16.4
2016-07-09T22:18:08.483Z,16.4
2016-07-09T22:21:23.010Z,16.4
2016-07-09T22:24:42.422Z,16.4
2016-07-09T22:27:47.119Z,16.4
2016-07-09T22:31:01.590Z,16.4
2016-07-09T22:34:15.793Z,16.4
2016-07-09T22:37:30.280Z,16.4
2016-07-09T22:40:49.666Z,16.3
2016-07-09T22:43:54.347Z,16.3
2016-07-09T22:47:08.839Z,16.3
2016-07-09T22:50:23.065Z,16.3
2016-07-09T22:53:42.309Z,16.4
2016-07-09T22:56:46.961Z,16.4
2016-07-09T23:00:01.471Z,16.4
2016-07-09T23:03:15.856Z,16.3
2016-07-09T23:06:30.231Z,16.3
2016-07-09T23:09:49.643Z,16.3
2016-07-09T23:12:54.293Z,16.4
2016-07-09T23:16:08.677Z,16.3
2016-07-09T23:19:23.048Z,16.3
2016-07-09T23:22:42.526Z,16.3
2016-07-09T23:25:47.187Z,16.3
2016-07-09T23:29:01.357Z,16.3
2016-07-09T23:32:14.381Z,16.3
2016-07-09T23:35:28.675Z,16.3
2016-07-09T23:38:47.926Z,16.3
2016-07-09T23:41:52.587Z,16.3
2016-07-09T23:45:06.897Z,16.3
2016-07-09T23:48:21.373Z,16.3
2016-07-09T23:51:35.666Z,16.3
2016-07-09T23:54:50.043Z,16.3
2016-07-09T23:58:04.045Z,16.3
